createdAt,value
2022-08-21T00:03:37.629Z,7.60
2022-08-21T00:08:37.413Z,11.17
2022-08-21T00:13:35.870Z,10.90
2022-08-21T00:18:34.758Z,11.03
2022-08-21T00:23:36.531Z,11.10
2022-08-21T00:28:34.880Z,9.80
2022-08-21T00:33:34.005Z,10.83
2022-08-21T00:38:32.999Z,7.57
2022-08-21T00:43:41.115Z,11.73
2022-08-21T00:48:39.394Z,12.57
2022-08-21T00:53:39.900Z,12.63
2022-08-21T00:58:41.610Z,11.17
2022-08-21T01:03:44.148Z,9.63
2022-08-21T01:08:46.798Z,11.13
2022-08-21T01:13:48.213Z,11.03
2022-08-21T01:18:46.528Z,14.40
2022-08-21T01:23:49.812Z,11.47
2022-08-21T01:28:54.556Z,10.60
2022-08-21T01:33:52.991Z,10.50
2022-08-21T01:38:52.928Z,7.70
2022-08-21T01:43:51.946Z,10.50
2022-08-21T01:48:50.364Z,17.80
2022-08-21T01:53:50.105Z,11.43
2022-08-21T01:58:51.974Z,11.80
2022-08-21T02:03:51.252Z,11.60
2022-08-21T02:08:51.583Z,11.53
2022-08-21T02:13:51.564Z,10.43
2022-08-21T02:18:50.191Z,11.73
2022-08-21T02:23:48.626Z,12.23
2022-08-21T02:28:47.387Z,14.07
2022-08-21T02:33:47.110Z,8.40
2022-08-21T02:38:46.207Z,14.53
2022-08-21T02:43:44.898Z,10.90
2022-08-21T02:48:43.504Z,13.13
2022-08-21T02:53:44.700Z,7.60
2022-08-21T02:58:45.754Z,13.27
2022-08-21T03:03:46.133Z,14.10
2022-08-21T03:08:47.571Z,10.00
2022-08-21T03:13:47.335Z,8.23
2022-08-21T03:18:45.721Z,7.60
2022-08-21T03:23:45.995Z,14.47
2022-08-21T03:28:44.568Z,13.43
2022-08-21T03:33:43.695Z,11.33
2022-08-21T03:38:42.506Z,15.63
2022-08-21T03:43:43.001Z,12.73
2022-08-21T03:48:42.508Z,15.50
2022-08-21T03:53:41.357Z,9.53
2022-08-21T03:58:42.165Z,8.90
2022-08-21T04:03:40.764Z,13.13
2022-08-21T04:08:39.110Z,7.83
2022-08-21T04:13:44.360Z,10.33
2022-08-21T04:18:45.208Z,14.27
2022-08-21T04:23:44.041Z,14.33
2022-08-21T04:28:43.221Z,14.03
2022-08-21T04:39:58.315Z,26.17
2022-08-21T04:45:34.228Z,17.33
2022-08-21T04:50:40.403Z,15.03
2022-08-21T04:55:40.652Z,17.37
2022-08-21T05:00:45.715Z,14.83
2022-08-21T05:11:00.664Z,24.47
2022-08-21T05:16:36.490Z,16.93
2022-08-21T05:21:37.280Z,14.40
2022-08-21T05:26:38.319Z,17.13
2022-08-21T05:31:47.237Z,20.30
2022-08-21T05:36:46.056Z,36.00
2022-08-21T05:41:44.697Z,31.37
2022-08-21T05:46:43.108Z,58.43
2022-08-21T05:51:43.720Z,35.40
2022-08-21T05:56:45.512Z,37.20
2022-08-21T06:01:43.841Z,32.50
2022-08-21T06:06:43.711Z,25.40
2022-08-21T06:11:41.975Z,47.13
2022-08-21T06:16:40.270Z,46.60
2022-08-21T06:21:38.609Z,34.37
2022-08-21T06:26:39.732Z,16.90
2022-08-21T06:31:38.087Z,26.87
2022-08-21T06:36:36.328Z,19.87
2022-08-21T06:41:39.198Z,20.77
2022-08-21T06:46:40.270Z,8.20
2022-08-21T06:51:38.488Z,27.03
2022-08-21T06:56:38.975Z,7.93
2022-08-21T07:01:37.512Z,24.83
2022-08-21T07:06:39.695Z,19.17
2022-08-21T07:11:42.423Z,23.83
2022-08-21T07:16:45.904Z,15.67
2022-08-21T07:21:45.651Z,9.77
2022-08-21T07:26:44.187Z,12.03
2022-08-21T07:31:42.400Z,8.60
2022-08-21T07:36:40.667Z,25.43
2022-08-21T07:41:40.372Z,12.13
2022-08-21T07:46:38.541Z,13.37
2022-08-21T07:51:37.103Z,7.80
2022-08-21T07:56:35.325Z,10.70
2022-08-21T08:01:35.062Z,4.83
2022-08-21T08:06:33.407Z,3.20
2022-08-21T08:11:32.270Z,5.90
2022-08-21T08:16:30.626Z,3.80
2022-08-21T08:21:30.257Z,3.33
2022-08-21T08:26:29.493Z,3.87
2022-08-21T08:31:28.285Z,3.23
2022-08-21T08:36:37.677Z,3.40
2022-08-21T08:41:39.049Z,7.00
2022-08-21T08:46:40.878Z,2.80
2022-08-21T08:51:53.126Z,3.00
2022-08-21T08:56:53.511Z,3.50
2022-08-21T09:01:52.387Z,3.00
2022-08-21T09:07:08.709Z,2.80
2022-08-21T09:12:14.156Z,2.37
2022-08-21T09:17:21.853Z,9.73
2022-08-21T09:22:29.050Z,5.90
2022-08-21T09:27:28.125Z,2.47
2022-08-21T09:32:37.128Z,3.17
2022-08-21T09:37:48.903Z,2.80
2022-08-21T09:42:57.381Z,3.50
2022-08-21T09:47:56.059Z,4.20
2022-08-21T09:52:59.606Z,3.30
2022-08-21T09:57:58.018Z,2.93
2022-08-21T10:02:56.332Z,2.60
2022-08-21T10:07:55.985Z,3.20
2022-08-21T10:13:06.072Z,3.20
2022-08-21T10:18:12.146Z,3.20
2022-08-21T10:23:38.460Z,5.10
2022-08-21T10:28:41.486Z,3.00
2022-08-21T10:33:48.831Z,3.67
2022-08-21T10:39:25.947Z,2.93
2022-08-21T10:44:32.222Z,2.80
2022-08-21T10:49:40.736Z,4.77
2022-08-21T10:54:48.737Z,4.00
2022-08-21T10:59:59.687Z,3.47
2022-08-21T11:05:02.450Z,3.30
2022-08-21T11:10:11.772Z,2.83
2022-08-21T11:15:29.943Z,3.50
2022-08-21T11:20:34.029Z,4.27
2022-08-21T11:25:37.807Z,3.00
2022-08-21T11:31:00.035Z,3.90
2022-08-21T11:36:08.028Z,2.83
2022-08-21T11:41:22.415Z,4.20
2022-08-21T11:46:30.296Z,3.00
2022-08-21T11:51:33.921Z,3.30
2022-08-21T11:56:38.185Z,3.00
2022-08-21T12:01:41.235Z,3.43
2022-08-21T12:06:41.427Z,3.20
2022-08-21T12:11:50.968Z,2.93
2022-08-21T12:16:52.195Z,2.90
2022-08-21T12:21:53.112Z,17.93
2022-08-21T12:26:54.605Z,4.67
2022-08-21T12:32:00.548Z,4.83
2022-08-21T12:37:04.530Z,4.47
2022-08-21T12:42:08.709Z,3.00
2022-08-21T12:47:16.412Z,19.37
2022-08-21T12:52:22.537Z,7.07
2022-08-21T12:57:25.692Z,6.23
2022-08-21T13:02:28.402Z,4.30
2022-08-21T13:07:34.035Z,4.30
2022-08-21T13:12:34.725Z,3.70
2022-08-21T13:17:37.226Z,5.47
2022-08-21T13:22:43.519Z,4.20
2022-08-21T13:27:44.306Z,4.63
2022-08-21T13:32:46.299Z,4.30
2022-08-21T13:37:49.630Z,14.77
2022-08-21T13:42:50.488Z,8.20
2022-08-21T13:47:50.652Z,6.80
2022-08-21T13:52:56.149Z,5.10
2022-08-21T13:58:06.063Z,20.20
2022-08-21T14:03:07.930Z,18.07
2022-08-21T14:08:10.184Z,4.50
2022-08-21T14:13:29.413Z,4.10
2022-08-21T14:18:27.717Z,5.57
2022-08-21T14:23:27.537Z,3.90
2022-08-21T14:28:29.801Z,3.90
2022-08-21T14:33:30.111Z,5.20
2022-08-21T14:38:29.779Z,3.70
2022-08-21T14:43:30.539Z,3.33
2022-08-21T14:48:31.195Z,4.33
2022-08-21T14:53:29.442Z,4.20
2022-08-21T14:58:29.455Z,4.57
2022-08-21T15:03:28.009Z,3.90
2022-08-21T15:08:26.323Z,5.80
2022-08-21T15:13:25.413Z,5.90
2022-08-21T15:18:27.396Z,3.90
2022-08-21T15:23:25.746Z,4.57
2022-08-21T15:28:23.993Z,3.90
2022-08-21T15:33:22.460Z,3.57
2022-08-21T15:38:22.057Z,3.93
2022-08-21T15:43:29.838Z,3.50
2022-08-21T15:48:29.368Z,3.70
2022-08-21T15:53:28.999Z,3.77
2022-08-21T15:58:27.293Z,3.00
2022-08-21T16:03:26.986Z,3.13
2022-08-21T16:08:25.959Z,3.23
2022-08-21T16:13:29.305Z,3.07
2022-08-21T16:18:28.385Z,2.93
2022-08-21T16:23:26.579Z,2.77
2022-08-21T16:28:26.262Z,3.27
2022-08-21T16:33:30.116Z,2.90
2022-08-21T16:38:30.336Z,2.50
2022-08-21T16:43:31.852Z,3.40
2022-08-21T16:48:31.973Z,2.93
2022-08-21T16:53:32.313Z,2.30
2022-08-21T16:58:34.198Z,2.37
2022-08-21T17:03:35.375Z,3.00
2022-08-21T17:08:33.917Z,2.10
2022-08-21T17:13:33.746Z,2.27
2022-08-21T17:18:31.979Z,2.03
2022-08-21T17:23:30.208Z,2.40
2022-08-21T17:28:33.001Z,2.10
2022-08-21T17:33:38.429Z,2.20
2022-08-21T17:38:37.648Z,2.17
2022-08-21T17:43:36.013Z,2.07
2022-08-21T17:48:35.989Z,1.70
2022-08-21T17:53:51.527Z,2.20
2022-08-21T17:58:52.084Z,2.27
2022-08-21T18:03:51.648Z,1.80
2022-08-21T18:08:49.939Z,2.10
2022-08-21T18:13:48.259Z,2.47
2022-08-21T18:18:48.929Z,3.73
2022-08-21T18:23:48.545Z,4.40
2022-08-21T18:28:46.830Z,2.63
2022-08-21T18:33:57.026Z,4.60
2022-08-21T18:39:13.633Z,4.17
2022-08-21T18:44:18.673Z,4.10
2022-08-21T18:49:17.054Z,2.50
2022-08-21T18:54:18.230Z,2.40
2022-08-21T18:59:16.915Z,2.67
2022-08-21T19:09:35.408Z,4.70
2022-08-21T19:14:34.518Z,4.93
2022-08-21T19:19:36.305Z,3.57
2022-08-21T19:24:39.233Z,3.80
2022-08-21T19:29:39.166Z,3.77
2022-08-21T19:34:38.788Z,3.73
2022-08-21T19:39:43.571Z,3.10
2022-08-21T19:44:45.667Z,2.40
2022-08-21T19:49:49.923Z,2.77
2022-08-21T19:54:49.658Z,2.30
2022-08-21T19:59:48.040Z,2.00
2022-08-21T20:10:07.200Z,2.60
2022-08-21T20:15:09.904Z,3.10
2022-08-21T20:20:09.274Z,2.87
2022-08-21T20:25:11.834Z,2.50
2022-08-21T20:30:13.250Z,2.60
2022-08-21T20:35:12.350Z,2.33
2022-08-21T20:40:15.066Z,4.00
2022-08-21T20:45:18.673Z,2.77
2022-08-21T20:50:22.653Z,4.33
2022-08-21T20:55:29.101Z,4.27
2022-08-21T21:00:31.148Z,3.30
2022-08-21T21:05:37.573Z,3.20
2022-08-21T21:10:44.751Z,3.40
2022-08-21T21:15:44.651Z,2.93
2022-08-21T21:20:49.972Z,3.70
2022-08-21T21:25:59.005Z,3.50
2022-08-21T21:30:57.831Z,2.90
2022-08-21T21:36:03.871Z,3.00
2022-08-21T21:41:11.772Z,3.60
2022-08-21T21:46:23.357Z,3.63
2022-08-21T21:51:31.677Z,4.13
2022-08-21T21:56:44.773Z,4.40
2022-08-21T22:01:50.018Z,4.23
2022-08-21T22:06:57.384Z,4.03
2022-08-21T22:12:26.518Z,3.77
2022-08-21T22:17:41.228Z,3.33
2022-08-21T22:22:40.309Z,3.97
2022-08-21T22:27:42.297Z,4.63
2022-08-21T22:32:45.820Z,5.70
2022-08-21T22:37:46.432Z,7.80
2022-08-21T22:42:59.226Z,5.83
2022-08-21T22:48:05.969Z,6.30
2022-08-21T22:53:11.391Z,5.67
2022-08-21T22:58:13.934Z,7.07
2022-08-21T23:03:22.013Z,7.63
2022-08-21T23:08:31.881Z,4.60
2022-08-21T23:13:40.824Z,6.90
2022-08-21T23:18:52.045Z,5.30
2022-08-21T23:24:03.948Z,6.93
2022-08-21T23:29:13.848Z,5.40
2022-08-21T23:34:28.488Z,6.93
2022-08-21T23:39:44.318Z,8.03
2022-08-21T23:44:59.443Z,10.23
2022-08-21T23:50:13.936Z,9.83
2022-08-21T23:55:27.545Z,8.83
